Flight Track Log - Related Links

Times and Time Zones

All times are in EDT time to prevent confusion due to time zone crossing. See the UAL5822 flight status page for this flight to view local times or setup timezone preferences in your user account.

Time Position Orientation Groundspeed Altitude Reporting Facility
EDT Latitude Longitude Course Direction KTS MPH feet Rate Location/Type
Sun 06:02:16 AM 41.4494 -75.6228 339° North 202 232 6,100  Level New York Center
Sun 06:03:00 AM 41.6116 -75.9999 292° West  Level FlightAware Approximate
Sun 06:03:28 AM 41.4928 -75.6786 316° Northwest 225 259 8,200  Level New York Center
Sun 06:04:00 AM 41.6469 -76.1195 297° West  Level FlightAware Approximate
Sun 06:04:28 AM 41.5294 -75.7506 304° West 247 284 9,800  Level New York Center
Sun 06:05:00 AM 41.6876 -76.2360 287° West  Level FlightAware Approximate
Sun 06:05:28 AM 41.5658 -75.8253 303° West 257 296 10,700  Level New York Center
Sun 06:06:00 AM 41.4131 -75.7566 339° North  Level FlightAware Approximate
Sun 06:06:28 AM 41.6028 -75.9336 295° West 288 331 11,800  Level New York Center
Sun 06:07:00 AM 41.4872 -75.8103 339° North  Level FlightAware Approximate
Sun 06:07:28 AM 41.6336 -76.0414 291° West 308 354 13,000  Level New York Center
Sun 06:08:28 AM 41.6639 -76.1519 290° West 318 366 14,100 1,150 Climbing New York Center
Sun 06:09:28 AM 41.6944 -76.2575 291° West 318 366 15,300 1,250 Climbing New York Center
Sun 06:10:28 AM 41.7247 -76.3683 290° West 318 366 16,600 1,340 Climbing New York Center
Sun 06:11:02 AM 41.7439 -76.4258 294° West 320 368 17,400 1,660 Climbing Cleveland Center
Sun 06:12:02 AM 41.7722 -76.5322 290° West 311 358 19,200 1,835 Climbing Cleveland Center
Sun 06:13:03 AM 41.8000 -76.6322 290° West 292 336 21,100 1,884 Climbing Cleveland Center
Sun 06:14:03 AM 41.8258 -76.7247 291° West 271 312 23,000 1,400 Climbing Cleveland Center
Sun 06:15:03 AM 41.8503 -76.8158 290° West 265 305 23,900 843 Climbing Cleveland Center
Sun 06:16:04 AM 41.8778 -76.9125 291° West 272 313 24,700 793 Climbing Cleveland Center
Sun 06:17:04 AM 41.9047 -77.0131 290° West 281 323 25,500 893 Climbing Cleveland Center
Sun 06:18:05 AM 41.9314 -77.1169 289° West 289 333 26,500 992 Climbing Cleveland Center
Sun 06:19:05 AM 41.9597 -77.2178 291° West 290 334 27,500 992 Climbing Cleveland Center
Sun 06:20:06 AM 41.9858 -77.3167 290° West 287 330 28,500 1,041 Climbing Cleveland Center
Sun 06:21:06 AM 42.0117 -77.4117 290° West 274 315 29,600 1,100 Climbing Cleveland Center
Sun 06:22:06 AM 42.0472 -77.4953 300° West 259 298 30,700 1,190 Climbing Cleveland Center
Sun 06:23:07 AM 42.0975 -77.5869 306° West 258 297 32,000 1,140 Climbing Cleveland Center
Sun 06:24:07 AM 42.1383 -77.6633 306° West 255 293 33,000 942 Climbing Cleveland Center
Sun 06:25:08 AM 42.1786 -77.7414 305° West 253 291 33,900 793 Climbing Cleveland Center
Sun 06:26:08 AM 42.1992 -77.8350 287° West 262 302 34,600 645 Climbing Cleveland Center
Sun 06:27:09 AM 42.2178 -77.9331 284° West 266 306 35,200 545 Climbing Cleveland Center
Sun 06:28:09 AM 42.2369 -78.0325 285° West 269 310 35,700 397 Climbing Cleveland Center
Sun 06:29:10 AM 42.2561 -78.1347 284° West 276 318 36,000 148 Climbing Cleveland Center
Sun 06:30:11 AM 42.2758 -78.2428 284° West 293 337 36,000  Level Cleveland Center
Sun 06:31:11 AM 42.2972 -78.3575 284° West 309 356 36,000  Level Cleveland Center
Sun 06:32:12 AM 42.3189 -78.4767 284° West 319 367 36,000  Level Cleveland Center
Sun 06:33:12 AM 42.3428 -78.6028 284° West 340 391 36,000  Level Cleveland Center
Sun 06:34:13 AM 42.3656 -78.7322 283° West 347 399 36,000  Level Cleveland Center
Sun 06:35:14 AM 42.3900 -78.8667 284° West 361 415 36,000  Level Cleveland Center
Sun 06:36:14 AM 42.4050 -79.0011 279° West 368 423 36,000  Level Cleveland Center
Sun 06:37:15 AM 42.4150 -79.1331 276° West 361 415 36,000  Level Cleveland Center
Sun 06:38:16 AM 42.4231 -79.2661 275° West 359 413 36,000  Level Cleveland Center
Sun 06:39:16 AM 42.4311 -79.3992 275° West 359 413 36,000  Level Cleveland Center
Sun 06:40:17 AM 42.4394 -79.5322 275° West 359 413 36,000  Level Cleveland Center
Sun 06:41:18 AM 42.4483 -79.6689 275° West 363 418 36,000  Level Cleveland Center
Sun 06:42:18 AM 42.4564 -79.8064 275° West 368 423 36,000  Level Cleveland Center
Sun 06:43:19 AM 42.4644 -79.9519 274° West 369 425 36,000  Level Cleveland Center
Sun 06:44:20 AM 42.4711 -80.0914 274° West 367 422 36,000  Level Cleveland Center
Sun 06:45:21 AM 42.4792 -80.2250 275° West 357 411 36,000  Level Cleveland Center
Sun 06:46:21 AM 42.4858 -80.3569 274° West 353 406 36,000  Level Cleveland Center
Sun 06:47:22 AM 42.4936 -80.4883 275° West 347 399 36,000  Level Cleveland Center
Sun 06:48:23 AM 42.5011 -80.6181 275° West 346 398 36,000  Level Cleveland Center
Sun 06:49:24 AM 42.5067 -80.7492 273° West 346 398 36,000  Level Cleveland Center
Sun 06:50:25 AM 42.5108 -80.8781 273° West 345 397 36,000  Level Cleveland Center
Sun 06:51:25 AM 42.5147 -81.0039 272° West 334 384 36,000  Level Cleveland Center
Sun 06:52:26 AM 42.5183 -81.1314 272° West 335 386 36,000  Level Cleveland Center
Sun 06:53:27 AM 42.5231 -81.2778 273° West 333 383 36,000  Level Cleveland Center
Sun 06:54:28 AM 42.5369 -81.4011 279° West 331 381 36,000  Level Cleveland Center
Sun 06:55:29 AM 42.5517 -81.5244 279° West 330 380 36,000  Level Cleveland Center
Sun 06:56:30 AM 42.5650 -81.6478 278° West 330 380 36,000  Level Cleveland Center
Sun 06:57:30 AM 42.5783 -81.7706 278° West 329 379 36,000  Level Cleveland Center
Sun 06:58:31 AM 42.5914 -81.8814 279° West 332 382 36,000  Level Cleveland Center
Sun 06:59:32 AM 42.6053 -82.0072 279° West 336 387 36,000  Level Cleveland Center
Sun 07:00:33 AM 42.6183 -82.1344 278° West 341 392 36,000  Level Cleveland Center
Sun 07:01:34 AM 42.6331 -82.2636 279° West 346 398 36,000  Level Cleveland Center
Sun 07:02:35 AM 42.6486 -82.4153 278° West 340 391 36,000  Level Cleveland Center
Sun 07:03:36 AM 42.6617 -82.5419 278° West 340 391 36,000  Level Cleveland Center
Sun 07:04:37 AM 42.6744 -82.6686 278° West 341 392 36,000  Level Cleveland Center
Sun 07:05:38 AM 42.7139 -82.7819 295° West 338 389 36,000  Level Cleveland Center
Sun 07:06:39 AM 42.7569 -82.8928 298° West 334 384 36,000  Level Cleveland Center
Sun 07:07:39 AM 42.8003 -83.0044 298° West 335 386 36,000 -99 Level Cleveland Center
Sun 07:08:40 AM 42.8442 -83.1150 298° West 335 386 35,800 -934 Descending Cleveland Center
Sun 07:09:41 AM 42.8897 -83.2303 298° West 344 396 34,100 -885 Descending Cleveland Center
Sun 07:10:42 AM 42.9342 -83.3464 298° West 347 399 34,000 -49 Descending Cleveland Center
Sun 07:11:43 AM 42.9583 -83.4744 285° West 356 410 34,000 -787 Level Cleveland Center
Sun 07:12:44 AM 42.9475 -83.6375 265° West 362 417 32,400 -984 Descending Cleveland Center
Sun 07:13:45 AM 42.9386 -83.7792 265° West 373 429 32,000 -197 Descending Cleveland Center
Sun 07:14:46 AM 42.9289 -83.9203 265° West 376 433 32,000  Level Cleveland Center
Sun 07:15:47 AM 42.9192 -84.0633 265° West 377 434 32,000  Level Cleveland Center
Sun 07:16:48 AM 42.9106 -84.2050 265° West 378 435 32,000  Level Cleveland Center
Sun 07:17:49 AM 42.9003 -84.3428 264° West 378 435 32,000  Level Cleveland Center
Sun 07:18:50 AM 42.8906 -84.4853 265° West 378 435 32,000  Level Cleveland Center
Sun 07:19:50 AM 42.8789 -84.6283 264° West 379 436 32,000  Level Cleveland Center
Sun 07:20:51 AM 42.8644 -84.7711 262° West 380 437 32,000  Level Cleveland Center
Sun 07:21:52 AM 42.8494 -84.9161 262° West 382 440 32,000  Level Cleveland Center
Sun 07:22:53 AM 42.8303 -85.0875 261° West 383 441 32,000  Level Cleveland Center
Sun 07:23:54 AM 42.8150 -85.2333 262° West 386 444 32,000  Level Cleveland Center
Sun 07:24:55 AM 42.7989 -85.3783 261° West 386 444 32,000 -780 Level Cleveland Center
Sun 07:25:57 AM 42.7822 -85.5233 261° West 387 445 30,400 -1,839 Descending Chicago Center
Sun 07:26:59 AM 42.7550 -85.6708 256° West 393 452 28,200 -2,213 Descending Chicago Center
Sun 07:27:59 AM 42.7286 -85.8183 256° West 397 457 25,900 -2,231 Descending Chicago Center
Sun 07:29:00 AM 42.7017 -85.9631 256° West 397 457 23,700 -2,182 Descending Chicago Center
Sun 07:30:00 AM 42.6764 -86.1044 256° West 389 448 21,500 -1,835 Descending Chicago Center
Sun 07:31:01 AM 42.6519 -86.2364 256° West 370 426 20,000 -738 Descending Chicago Center
Sun 07:32:02 AM 42.6269 -86.3653 255° West 354 407 20,000  Level Chicago Center
Sun 07:33:03 AM 42.6017 -86.4986 256° West 358 412 20,000 -1,033 Level Chicago Center
Sun 07:34:04 AM 42.5767 -86.6308 256° West 360 414 17,900 -2,083 Descending Chicago Center
Sun 07:35:04 AM 42.5528 -86.7606 256° West 360 414 15,800 -2,132 Descending Chicago Center
Sun 07:36:05 AM 42.5189 -86.8797 249° West 344 396 13,600 -2,016 Descending Chicago Center
Sun 07:37:06 AM 42.4886 -86.9931 250° West 325 374 11,700 -1,279 Descending Chicago Center
Sun 07:38:07 AM 42.4569 -87.1028 249° West 312 359 11,000 -344 Descending Chicago Center
Sun 07:39:08 AM 42.4247 -87.2189 249° West 328 377 11,000  Level Chicago Center
Sun 07:40:09 AM 42.3936 -87.3319 250° West 324 373 11,000  Level Chicago Center
Sun 07:41:10 AM 42.3600 -87.4581 250° West 324 373 11,000  Level Chicago Center
Sun 07:42:11 AM 42.3017 -87.5742 236° Southwest 343 395 11,000  Level Chicago Center
Sun 07:43:12 AM 42.2275 -87.6519 218° Southwest 338 389 11,000 -98 Level Chicago Center
Sun 07:44:13 AM 42.1586 -87.7250 218° Southwest 312 359 10,800 -885 Descending Chicago Center
Sun 07:45:14 AM 42.1036 -87.7853 219° Southwest 262 302 9,200 -1,623 Descending Chicago Center
Sun 07:46:15 AM 42.0794 -87.8686 249° West 244 281 7,500 -1,082 Descending Chicago Center
Sun 07:47:16 AM 42.0644 -87.9633 258° West 246 283 7,000 -689 Descending Chicago Center
Sun 07:48:17 AM 42.0619 -88.0428 268° West 216 249 6,100 -1,230 Descending Chicago Center
Sun 07:49:18 AM 42.0589 -88.1211 267° West 210 242 4,500 -1,377 Descending Chicago Center
Sun 07:50:19 AM 42.0275 -88.1647 226° Southwest 189 217 3,300 -738 Descending Chicago Center
Sun 07:51:20 AM 41.9961 -88.1322 142° Southeast 166 191 3,000 -149 Descending Chicago Center
Sun 07:52:20 AM 41.9831 -88.0739 107° East 158 182 3,000 -347 Level Chicago Center
Sun 07:53:21 AM 41.9831 -88.0167 90° East 155 178 2,300 -689 Descending Chicago Center
Sun 07:54:22 AM 41.9831 -87.9767 90° East 112 129 1,600 -639 Descending Chicago Center
Sun 07:55:23 AM 41.9831 -87.9342 90° East 110 127 1,000 -344 Descending Chicago Center
Sun 07:56:24 AM 41.9836 -87.8978 89° East 110 127 900 -98 Descending Chicago Center

Login

Don't have an account? Register now (free) for customized features, flight alerts, and more!